createdAt,value
2018-01-15T01:03:25.704Z,-0.10
2018-01-15T01:05:53.138Z,-0.10
2018-01-15T01:08:21.327Z,0.10
2018-01-15T01:10:50.484Z,0.20
2018-01-15T03:09:07.204Z,-1.10
2018-01-15T03:11:36.522Z,-2.20
2018-01-15T03:14:05.885Z,-2.10
2018-01-15T03:19:29.186Z,-2.10
2018-01-15T03:21:56.664Z,-2.00
2018-01-15T03:24:25.877Z,-1.90
2018-01-15T03:44:23.014Z,-1.60
2018-01-15T03:46:51.348Z,-1.60
2018-01-15T03:49:21.196Z,-1.50
2018-01-15T03:51:49.576Z,-1.50
2018-01-15T03:54:19.357Z,-1.40
2018-01-15T03:56:51.764Z,-1.40
2018-01-15T03:59:19.499Z,-1.40
2018-01-15T04:01:48.586Z,-1.10
2018-01-15T04:04:16.063Z,-1.10
2018-01-15T04:06:44.913Z,-1.00
2018-01-15T04:09:12.747Z,-0.90
2018-01-15T04:11:40.193Z,-0.90
2018-01-15T04:19:38.954Z,-0.70
2018-01-15T04:22:07.259Z,-0.70
2018-01-15T04:24:36.721Z,-0.70
2018-01-15T04:27:05.087Z,-0.60
2018-01-15T04:29:32.548Z,-0.50
2018-01-15T04:32:00.007Z,-0.50
2018-01-15T04:34:28.950Z,-0.40
2018-01-15T04:36:57.887Z,-0.20
2018-01-15T04:39:27.442Z,-0.10
2018-01-15T04:41:55.311Z,0.30
2018-01-15T04:44:23.890Z,0.30
2018-01-15T04:46:51.331Z,0.40
2018-01-15T04:49:18.783Z,0.50
2018-01-15T04:51:46.261Z,0.50
2018-01-15T04:54:13.717Z,0.60
2018-01-15T04:56:41.170Z,0.60
2018-01-15T04:59:12.849Z,0.50
2018-01-15T05:16:01.001Z,0.20
2018-01-15T05:18:28.454Z,0.30
2018-01-15T05:20:56.854Z,0.30
2018-01-15T05:23:24.309Z,0.30
2018-01-15T05:25:53.251Z,0.30
2018-01-15T05:28:20.702Z,0.60
2018-01-15T05:30:48.778Z,0.60
2018-01-15T05:33:16.198Z,0.70
2018-01-15T05:35:44.410Z,0.70
2018-01-15T05:38:11.869Z,0.80
2018-01-15T05:40:39.322Z,0.90
2018-01-15T05:43:06.790Z,0.90
2018-01-15T05:45:34.638Z,1.00
2018-01-15T05:48:02.074Z,1.00
2018-01-15T05:50:31.711Z,1.00
2018-01-15T05:52:59.993Z,1.00
2018-01-15T05:55:27.830Z,1.00
2018-01-15T05:57:56.902Z,1.00
2018-01-15T06:00:25.350Z,1.00
2018-01-15T06:02:53.662Z,1.10
2018-01-15T06:05:23.310Z,1.00
2018-01-15T06:07:55.281Z,0.90
2018-01-15T06:10:22.702Z,0.90
2018-01-15T06:12:52.118Z,0.80
2018-01-15T06:15:19.836Z,1.00
2018-01-15T06:17:47.662Z,1.10
2018-01-15T06:20:15.110Z,1.00
2018-01-15T06:22:43.278Z,1.00
2018-01-15T06:25:10.720Z,1.10
2018-01-15T06:27:38.926Z,1.10
2018-01-15T06:30:06.377Z,1.10
2018-01-15T06:32:34.631Z,1.00
2018-01-15T06:35:02.703Z,1.10
2018-01-15T06:37:30.162Z,1.10
2018-01-15T06:39:57.612Z,1.20
2018-01-15T06:42:25.719Z,1.10
2018-01-15T06:44:54.506Z,1.10
2018-01-15T06:47:28.724Z,1.00
2018-01-15T06:50:00.398Z,1.00
2018-01-15T06:52:27.849Z,1.00
2018-01-15T06:54:56.079Z,1.00
2018-01-15T06:57:24.243Z,1.00
2018-01-15T06:59:54.209Z,1.10
2018-01-15T07:02:44.930Z,1.00
2018-01-15T07:05:14.000Z,1.00
2018-01-15T07:07:44.279Z,1.00
2018-01-15T07:10:26.951Z,1.00
2018-01-15T07:13:09.184Z,1.00
2018-01-15T07:17:20.449Z,0.90
2018-01-15T07:41:16.486Z,0.90
2018-01-15T07:43:43.914Z,0.80
2018-01-15T07:46:11.366Z,0.80
2018-01-15T07:48:42.020Z,0.80
2018-01-15T07:51:11.171Z,0.90
2018-01-15T07:56:27.063Z,1.00
2018-01-15T07:58:56.188Z,1.00
2018-01-15T08:01:33.072Z,1.10
2018-01-15T08:04:00.552Z,1.20
2018-01-15T08:06:27.994Z,1.10
2018-01-15T08:08:55.450Z,1.20
2018-01-15T08:11:40.490Z,1.20
2018-01-15T08:14:08.341Z,1.20
2018-01-15T08:16:48.746Z,1.20
2018-01-15T08:19:18.790Z,1.20
2018-01-15T08:21:49.979Z,1.30
2018-01-15T08:24:47.495Z,1.20
2018-01-15T08:30:23.655Z,1.30
2018-01-15T09:12:20.396Z,1.40
2018-01-15T09:14:49.106Z,1.70
2018-01-15T09:17:18.335Z,1.70
2018-01-15T09:19:46.903Z,1.60
2018-01-15T09:22:16.818Z,1.60
2018-01-15T09:24:47.785Z,1.70
2018-01-15T09:27:15.851Z,1.90
2018-01-15T09:29:44.593Z,1.90
2018-01-15T09:32:12.014Z,1.80
2018-01-15T09:34:47.590Z,1.80
2018-01-15T09:48:52.703Z,1.80
2018-01-15T09:51:20.143Z,1.70
2018-01-15T09:53:51.816Z,1.70
2018-01-15T09:56:20.547Z,1.70
2018-01-15T09:58:49.126Z,1.90
2018-01-15T10:01:17.210Z,1.90
2018-01-15T10:06:20.586Z,2.00
2018-01-15T10:08:49.148Z,2.10
2018-01-15T10:11:21.645Z,2.10
2018-01-15T10:13:53.938Z,2.00
2018-01-15T10:16:23.228Z,2.00
2018-01-15T10:18:50.703Z,2.10
2018-01-15T10:21:20.715Z,2.00
2018-01-15T10:24:00.426Z,2.10
2018-01-15T10:26:27.876Z,2.10
2018-01-15T10:28:56.221Z,2.20
2018-01-15T10:31:51.999Z,2.20
2018-01-15T10:34:23.147Z,2.20
2018-01-15T10:36:56.802Z,2.10
2018-01-15T10:39:26.591Z,2.20
2018-01-15T10:41:54.119Z,2.20
2018-01-15T10:47:17.470Z,2.40
2018-01-15T10:49:55.042Z,2.60
2018-01-15T10:52:32.674Z,2.60
2018-01-15T10:57:52.872Z,2.60
2018-01-15T11:00:40.201Z,2.50
2018-01-15T11:03:08.457Z,2.50
2018-01-15T11:05:49.362Z,2.50
2018-01-15T11:14:35.351Z,2.60
2018-01-15T11:17:12.196Z,2.60
2018-01-15T11:19:41.552Z,2.50
2018-01-15T11:22:14.202Z,2.40
2018-01-15T11:24:49.025Z,2.50
2018-01-15T11:29:51.448Z,2.50
2018-01-15T11:32:23.088Z,2.40
2018-01-15T11:34:57.172Z,2.50
2018-01-15T11:40:17.871Z,2.70
2018-01-15T11:42:45.326Z,2.70
2018-01-15T11:45:17.642Z,2.60
2018-01-15T11:55:11.078Z,2.90
2018-01-15T11:57:43.991Z,3.00
2018-01-15T12:00:12.094Z,3.00
2018-01-15T12:23:53.691Z,3.10
2018-01-15T12:26:25.492Z,3.30
2018-01-15T12:28:54.754Z,3.30
2018-01-15T12:31:26.066Z,3.20
2018-01-15T12:33:54.518Z,3.20
2018-01-15T12:39:35.575Z,3.20
2018-01-15T12:42:03.805Z,3.20
2018-01-15T12:44:36.927Z,3.20
2018-01-15T12:47:05.307Z,3.30
2018-01-15T12:49:35.164Z,3.40
2018-01-15T12:52:10.817Z,3.40
2018-01-15T12:54:49.803Z,3.40
2018-01-15T12:59:51.289Z,3.40
2018-01-15T13:02:36.843Z,3.50
2018-01-15T13:05:05.483Z,3.40
2018-01-15T13:07:48.792Z,3.40
2018-01-15T13:10:16.679Z,3.40
2018-01-15T13:12:45.227Z,3.50
2018-01-15T13:15:13.942Z,3.50
2018-01-15T13:17:42.303Z,3.50
2018-01-15T13:20:11.311Z,3.50
2018-01-15T13:22:39.994Z,3.60
2018-01-15T13:25:09.936Z,3.70
2018-01-15T13:27:37.775Z,3.70
2018-01-15T13:30:08.518Z,3.80
2018-01-15T13:32:41.407Z,3.80
2018-01-15T13:35:12.532Z,3.80
2018-01-15T13:37:42.756Z,3.80
2018-01-15T13:40:14.446Z,3.80
2018-01-15T13:42:45.957Z,3.80
2018-01-15T13:45:16.986Z,3.80
2018-01-15T13:47:46.918Z,3.80
2018-01-15T13:50:15.965Z,3.90
2018-01-15T13:52:45.540Z,3.90
2018-01-15T13:55:17.470Z,4.00
2018-01-15T13:57:48.775Z,4.10
2018-01-15T14:03:09.006Z,4.10
2018-01-15T14:05:36.462Z,4.20
2018-01-15T14:08:09.991Z,4.30
2018-01-15T14:10:44.606Z,4.30
2018-01-15T14:13:21.597Z,4.30
2018-01-15T14:15:50.792Z,4.30
2018-01-15T14:18:18.827Z,4.40
2018-01-15T14:20:51.567Z,4.40
2018-01-15T14:23:19.442Z,4.60
2018-01-15T14:25:47.798Z,4.60
2018-01-15T14:28:15.791Z,4.60
2018-01-15T14:30:48.985Z,4.70
2018-01-15T14:33:19.014Z,4.70
2018-01-15T14:35:50.296Z,4.80
2018-01-15T14:38:17.713Z,4.80
2018-01-15T14:40:47.511Z,4.70
2018-01-15T14:43:16.495Z,4.80
2018-01-15T14:45:43.954Z,4.80
2018-01-15T14:48:13.225Z,4.80
2018-01-15T14:50:42.150Z,4.90
2018-01-15T14:53:11.728Z,5.00
2018-01-15T14:55:39.168Z,5.00
2018-01-15T14:58:13.643Z,5.00
2018-01-15T15:00:42.430Z,5.00
2018-01-15T15:03:10.503Z,5.10
2018-01-15T15:05:37.974Z,5.10
2018-01-15T15:08:06.194Z,5.10
2018-01-15T15:10:35.435Z,5.20
2018-01-15T15:13:05.343Z,5.20
2018-01-15T15:15:34.185Z,5.30
2018-01-15T15:18:02.062Z,5.30
2018-01-15T15:20:30.174Z,5.30
2018-01-15T15:22:58.308Z,5.30
2018-01-15T15:25:27.880Z,5.30
2018-01-15T15:27:55.819Z,5.30
2018-01-15T15:30:23.270Z,5.30
2018-01-15T15:32:51.072Z,5.30
2018-01-15T15:35:19.310Z,5.30
2018-01-15T15:37:48.062Z,5.30
2018-01-15T15:40:19.550Z,5.20
2018-01-15T16:16:01.672Z,4.90
2018-01-15T16:18:43.733Z,4.90
2018-01-15T16:30:32.294Z,4.70
2018-01-15T16:33:01.861Z,4.50
2018-01-15T16:35:31.503Z,4.50
2018-01-15T16:38:05.572Z,4.40
2018-01-15T16:40:33.822Z,4.40
2018-01-15T16:43:14.074Z,4.40
2018-01-15T16:45:47.467Z,4.40
2018-01-15T16:48:28.778Z,4.50
2018-01-15T16:50:58.590Z,4.50
2018-01-15T16:53:49.231Z,4.50
2018-01-15T16:56:43.649Z,4.50
2018-01-15T17:02:11.499Z,4.50
2018-01-15T17:04:59.176Z,4.60
2018-01-15T17:10:24.646Z,4.70
2018-01-15T17:12:54.978Z,4.80
2018-01-15T17:15:23.400Z,4.80
2018-01-15T17:23:40.439Z,4.90
2018-01-15T17:26:24.163Z,5.00
2018-01-15T17:28:57.370Z,5.00
2018-01-15T17:31:25.353Z,5.10
2018-01-15T17:36:27.434Z,5.10
2018-01-15T17:38:55.612Z,5.10
2018-01-15T17:41:25.682Z,5.10
2018-01-15T17:43:59.149Z,5.00
2018-01-15T17:46:39.079Z,5.10
2018-01-15T17:49:14.010Z,5.10
2018-01-15T17:51:57.030Z,5.10
2018-01-15T17:54:31.248Z,5.10
2018-01-15T17:57:02.895Z,5.10
2018-01-15T17:59:40.902Z,5.10
2018-01-15T18:02:13.173Z,5.00
2018-01-15T18:04:40.601Z,5.00
2018-01-15T18:07:08.858Z,4.90
2018-01-15T18:09:38.282Z,4.90
2018-01-15T18:12:06.872Z,4.90
2018-01-15T18:14:39.091Z,4.90
2018-01-15T18:17:12.187Z,5.00
2018-01-15T18:19:40.679Z,5.00
2018-01-15T18:22:12.491Z,5.10
2018-01-15T18:24:43.419Z,5.10
2018-01-15T18:27:11.535Z,5.00
2018-01-15T18:29:43.629Z,5.00
2018-01-15T18:32:18.372Z,5.00
2018-01-15T18:34:51.572Z,5.00
2018-01-15T18:37:19.619Z,5.00
2018-01-15T18:39:52.996Z,4.90
2018-01-15T18:49:25.259Z,5.10
2018-01-15T18:51:56.556Z,5.10
2018-01-15T18:54:31.981Z,5.10
2018-01-15T19:02:50.624Z,5.00
2018-01-15T19:11:06.867Z,5.10
2018-01-15T19:13:55.495Z,5.10
2018-01-15T19:16:23.260Z,5.00
2018-01-15T19:26:26.085Z,5.00
2018-01-15T19:28:53.770Z,5.00
2018-01-15T19:31:49.819Z,4.90
2018-01-15T19:37:10.753Z,4.90
